Time;durP1;ratioP1;P1;durP2;ratioP2;P2;SDS_P1;SDS_P2;PMS_P1;PMS_P2;Temp;Humidity;BMP_temperature;BMP_pressure;BME280_temperature;BME280_humidity;BME280_pressure;Samples;Min_cycle;Max_cycle;Signal;HPM_P1;HPM_P2
2021/05/11 00:01:38;;;;;;;5.50;3.95;;;;;;;9.66;35.55;100843.53;5091003;28;20028;-68
2021/05/11 00:04:04;;;;;;;7.30;4.13;;;;;;;9.48;35.88;100829.47;5091055;28;20071;-68
2021/05/11 00:06:30;;;;;;;6.32;4.70;;;;;;;9.47;36.13;100843.78;5091953;28;20507;-67
2021/05/11 00:08:55;;;;;;;8.27;4.65;;;;;;;9.49;36.09;100836.53;5090966;28;20040;-68
2021/05/11 00:11:21;;;;;;;10.95;4.35;;;;;;;9.73;35.55;100857.38;5090992;28;20040;-67
2021/05/11 00:13:46;;;;;;;7.20;4.57;;;;;;;9.67;35.59;100863.97;5090793;28;20062;-68
2021/05/11 00:16:12;;;;;;;7.03;4.40;;;;;;;9.56;36.08;100859.25;5091467;28;20485;-65
2021/05/11 00:18:37;;;;;;;9.65;4.72;;;;;;;9.25;36.23;100804.97;5090844;28;20100;-69
2021/05/11 00:21:03;;;;;;;7.88;4.22;;;;;;;9.32;36.59;100827.69;5090025;28;20193;-66
2021/05/11 00:23:28;;;;;;;6.55;4.47;;;;;;;9.47;36.43;100849.97;5088159;28;20126;-67
2021/05/11 00:25:54;;;;;;;6.10;4.05;;;;;;;9.45;36.22;100840.34;5088331;28;20457;-67
2021/05/11 00:28:20;;;;;;;8.52;4.63;;;;;;;9.58;36.09;100846.66;5089003;28;20036;-68
2021/05/11 00:30:45;;;;;;;6.85;4.30;;;;;;;9.76;35.50;100854.53;5088796;28;20529;-67
2021/05/11 00:33:11;;;;;;;6.15;4.05;;;;;;;9.84;35.39;100857.59;5088559;28;20024;-67
2021/05/11 00:35:36;;;;;;;6.63;4.38;;;;;;;8.90;35.19;100693.91;5088552;28;20146;-67
2021/05/11 00:38:02;;;;;;;7.07;4.32;;;;;;;9.81;35.38;100852.41;5088867;28;20063;-67
2021/05/11 00:40:27;;;;;;;7.95;4.70;;;;;;;9.81;35.78;100846.22;5090165;28;20058;-64
2021/05/11 00:42:53;;;;;;;7.50;4.28;;;;;;;9.65;35.78;100838.28;5090217;28;20044;-67
2021/05/11 00:45:18;;;;;;;7.03;4.60;;;;;;;9.76;35.97;100859.88;5090284;28;20124;-68
2021/05/11 00:47:44;;;;;;;8.35;4.82;;;;;;;9.39;36.01;100803.25;5089702;28;20032;-66
2021/05/11 00:50:10;;;;;;;7.80;4.45;;;;;;;9.75;35.80;100844.78;5094579;28;20165;-69
2021/05/11 00:52:36;;;;;;;6.32;4.25;;;;;;;9.72;35.85;100863.69;5094280;28;20134;-69
2021/05/11 00:55:03;;;;;;;8.45;5.22;;;;;;;9.39;35.95;100817.50;5093225;28;20491;-69
2021/05/11 00:57:30;;;;;;;6.55;4.53;;;;;;;9.67;36.10;100863.13;5094419;28;20540;-68
2021/05/11 00:59:58;;;;;;;17.40;4.75;;;;;;;9.59;36.32;100847.53;5094817;28;20040;-67
2021/05/11 01:02:24;;;;;;;6.30;4.63;;;;;;;9.31;36.06;100812.59;5094176;28;20059;-68
2021/05/11 01:04:50;;;;;;;13.07;4.80;;;;;;;9.73;36.09;100870.75;5093798;28;20116;-68
2021/05/11 01:07:15;;;;;;;7.47;4.05;;;;;;;9.44;35.82;100806.53;5093849;28;20496;-67
2021/05/11 01:09:42;;;;;;;7.20;4.30;;;;;;;9.59;36.06;100848.38;5094284;28;20031;-63
2021/05/11 01:12:08;;;;;;;6.55;4.28;;;;;;;9.67;36.42;100879.16;5092722;28;20027;-68
2021/05/11 01:14:34;;;;;;;5.88;3.75;;;;;;;9.58;36.55;100870.72;5093843;28;20032;-67
2021/05/11 01:17:01;;;;;;;11.13;4.30;;;;;;;9.43;36.74;100869.81;5093824;28;20031;-66
2021/05/11 01:19:49;;;;;;;5.40;4.20;;;;;;;9.53;36.57;100888.84;5094073;28;20042;-67
2021/05/11 01:25:14;;;;;;;8.63;4.28;;;;;;;9.58;36.23;100861.84;5101039;28;20044;-65
2021/05/11 01:27:57;;;;;;;;;;;;;;;9.71;35.73;100889.56;5111335;28;20527;-65
2021/05/11 01:44:32;;;;;;;6.15;4.35;;;;;;;8.56;38.34;100815.16;5113872;28;20496;-69
2021/05/11 01:52:31;;;;;;;8.70;4.18;;;;;;;9.00;38.70;100889.22;5112563;28;20032;-70
2021/05/11 02:22:38;;;;;;;8.30;4.53;;;;;;;9.88;36.58;100877.84;5094241;28;20024;-67
2021/05/11 02:24:39;;;;;;;8.23;4.28;;;;;;;10.09;36.48;100912.25;5090479;28;20389;-67
2021/05/11 02:27:05;;;;;;;7.25;4.18;;;;;;;10.19;36.40;100921.47;5093802;28;20036;-69
2021/05/11 02:29:30;;;;;;;6.68;4.10;;;;;;;10.39;35.85;100911.34;5092816;28;20405;-68
2021/05/11 02:31:56;;;;;;;8.15;4.25;;;;;;;10.41;35.87;100909.47;5092715;28;20028;-70
2021/05/11 02:34:21;;;;;;;9.27;4.55;;;;;;;10.36;35.63;100873.19;5092466;28;20039;-69
2021/05/11 02:36:47;;;;;;;6.82;4.30;;;;;;;10.76;34.86;100898.31;5091368;28;20081;-67
2021/05/11 02:39:12;;;;;;;6.80;4.88;;;;;;;10.81;34.96;100910.53;5091759;28;20047;-65
2021/05/11 02:41:41;;;;;;;8.25;4.88;;;;;;;10.86;34.55;100893.22;5092612;28;20374;-69
2021/05/11 02:44:06;;;;;;;6.93;4.10;;;;;;;10.69;35.06;100893.44;5092291;28;20059;-68
2021/05/11 02:46:32;;;;;;;7.47;4.15;;;;;;;10.81;34.93;100879.28;5092384;28;20032;-68
2021/05/11 02:48:58;;;;;;;7.22;4.43;;;;;;;10.82;35.33;100902.41;5092060;28;20040;-69
2021/05/11 02:51:24;;;;;;;9.10;4.43;;;;;;;10.86;34.91;100903.09;5092190;28;20047;-69
2021/05/11 02:53:49;;;;;;;7.50;4.30;;;;;;;10.91;34.89;100900.97;5092179;28;20036;-68
2021/05/11 02:56:15;;;;;;;6.63;3.90;;;;;;;10.82;35.33;100917.63;5091900;28;20082;-69
2021/05/11 02:58:42;;;;;;;7.95;4.07;;;;;;;10.77;35.07;100894.66;5092420;28;20105;-69
2021/05/11 03:01:08;;;;;;;5.78;4.10;;;;;;;10.99;34.81;100904.00;5091790;28;20032;-69
2021/05/11 03:03:33;;;;;;;7.00;4.10;;;;;;;10.76;34.58;100838.53;5091900;28;20062;-69
2021/05/11 03:05:59;;;;;;;4.80;3.15;;;;;;;11.10;34.64;100902.47;5091723;28;20028;-69
2021/05/11 03:08:24;;;;;;;8.95;3.72;;;;;;;11.04;34.74;100901.88;5091602;28;20031;-68
2021/05/11 03:10:49;;;;;;;9.38;3.78;;;;;;;10.99;35.07;100905.84;5090700;28;20513;-67
2021/05/11 03:13:15;;;;;;;8.13;3.63;;;;;;;11.23;34.42;100894.47;5090179;28;20438;-67
2021/05/11 03:15:40;;;;;;;7.90;3.88;;;;;;;11.24;34.36;100910.44;5090911;28;20036;-68
2021/05/11 03:18:06;;;;;;;6.55;3.83;;;;;;;11.51;34.13;100914.91;5091512;28;20042;-68
2021/05/11 03:20:31;;;;;;;6.88;3.72;;;;;;;11.37;34.66;100918.50;5091807;28;20032;-68
2021/05/11 03:22:57;;;;;;;5.10;3.65;;;;;;;10.94;34.70;100817.69;5092416;28;20032;-68
2021/05/11 03:25:23;;;;;;;4.80;3.17;;;;;;;11.67;34.04;100909.34;5091767;28;20063;-69
2021/05/11 03:27:49;;;;;;;6.20;3.58;;;;;;;11.89;34.21;100916.81;5091352;28;20485;-68
2021/05/11 03:30:15;;;;;;;5.85;3.30;;;;;;;12.06;34.01;100915.69;5091649;28;20039;-66
2021/05/11 03:32:40;;;;;;;6.05;3.65;;;;;;;12.86;32.84;100912.78;5091705;28;20469;-69
2021/05/11 03:35:06;;;;;;;5.25;4.03;;;;;;;13.84;31.26;100917.19;5091170;28;20042;-70
2021/05/11 03:37:31;;;;;;;6.13;3.53;;;;;;;14.92;29.44;100906.94;5091284;28;20481;-68
2021/05/11 03:39:57;;;;;;;5.03;3.15;;;;;;;15.97;27.93;100915.41;5091558;28;20390;-70
2021/05/11 03:42:31;;;;;;;4.28;3.30;;;;;;;16.90;26.52;100907.28;5090994;28;20028;-73
2021/05/11 03:45:00;;;;;;;5.78;3.38;;;;;;;18.05;25.18;100913.03;5090862;28;20068;-69
2021/05/11 03:47:28;;;;;;;4.07;3.10;;;;;;;18.73;23.50;100901.06;5089826;28;20381;-70
2021/05/11 03:49:53;;;;;;;5.00;2.90;;;;;;;19.13;22.67;100860.16;5091401;28;20066;-71
2021/05/11 03:52:19;;;;;;;4.05;3.22;;;;;;;20.02;21.72;100911.88;5091138;28;20032;-69
2021/05/11 03:54:44;;;;;;;4.18;2.95;;;;;;;20.72;21.17;100905.41;5090916;28;20039;-67
2021/05/11 03:57:11;;;;;;;3.65;2.95;;;;;;;21.25;20.22;100845.34;5091588;28;20119;-72
2021/05/11 03:59:36;;;;;;;7.57;3.10;;;;;;;22.18;19.44;100905.91;5090980;28;20138;-71
2021/05/11 04:02:05;;;;;;;6.35;2.90;;;;;;;22.64;18.90;100844.41;5089982;28;20477;-68
2021/05/11 04:04:32;;;;;;;4.57;2.90;;;;;;;23.89;17.79;100897.16;5108673;28;20404;-68
2021/05/11 04:06:57;;;;;;;3.15;2.40;;;;;;;24.68;17.29;100911.34;5109056;28;20032;-68
2021/05/11 04:16:57;;;;;;;2.72;2.30;;;;;;;26.04;15.37;100923.53;5108608;28;20577;-68
2021/05/11 04:19:23;;;;;;;4.82;2.83;;;;;;;26.36;14.76;100915.72;5109003;28;20039;-68
2021/05/11 04:21:48;;;;;;;4.82;2.83;;;;;;;25.78;14.76;100880.25;5109793;28;20400;-68
2021/05/11 04:24:14;;;;;;;4.93;2.80;;;;;;;26.19;14.87;100925.34;5109576;28;20195;-68
2021/05/11 04:26:40;;;;;;;4.90;2.53;;;;;;;26.66;14.59;100862.44;5110927;28;20035;-70
2021/05/11 04:29:05;;;;;;;4.35;2.63;;;;;;;27.68;13.68;100871.75;5109370;28;20059;-69
2021/05/11 04:31:34;;;;;;;3.88;2.50;;;;;;;28.20;13.07;100913.25;5109864;28;20035;-69
2021/05/11 04:33:59;;;;;;;2.60;2.40;;;;;;;28.68;13.17;100909.28;5110805;28;20034;-70
2021/05/11 04:36:24;;;;;;;3.67;2.40;;;;;;;29.72;12.26;100918.47;5109681;28;20032;-70
2021/05/11 04:38:50;;;;;;;2.55;2.10;;;;;;;30.47;11.76;100906.50;5110714;28;20538;-69
2021/05/11 04:41:16;;;;;;;7.00;2.75;;;;;;;30.99;11.10;100905.22;5115276;28;20035;-70
2021/05/11 04:43:42;;;;;;;4.50;2.60;;;;;;;31.30;11.01;100914.38;5113206;28;20525;-69
2021/05/11 04:48:45;;;;;;;5.73;2.90;;;;;;;29.63;11.75;100913.22;5111143;28;20028;-68
2021/05/11 04:51:13;;;;;;;4.38;3.58;;;;;;;29.29;12.00;100896.06;5110809;28;20031;-69
2021/05/11 04:53:38;;;;;;;3.22;2.17;;;;;;;29.34;11.66;100898.97;5110485;28;20473;-69
2021/05/11 04:56:04;;;;;;;4.47;2.30;;;;;;;29.81;11.77;100906.06;5109288;28;20035;-69
2021/05/11 04:58:30;;;;;;;5.18;2.33;;;;;;;31.23;11.16;100913.66;5110423;28;20024;-69
2021/05/11 05:01:01;;;;;;;2.83;2.25;;;;;;;31.63;10.57;100904.72;5110157;28;20032;-68
2021/05/11 05:03:28;;;;;;;2.97;2.20;;;;;;;31.23;10.47;100866.63;5109354;28;20038;-71
2021/05/11 05:05:54;;;;;;;3.80;2.10;;;;;;;32.02;10.29;100906.19;5110227;28;20043;-68
2021/05/11 05:08:20;;;;;;;6.43;2.42;;;;;;;32.34;9.78;100897.56;5110159;28;20039;-69
2021/05/11 05:10:45;;;;;;;3.10;2.28;;;;;;;33.22;9.85;100899.28;5110037;28;20091;-69
2021/05/11 05:13:20;;;;;;;4.88;2.20;;;;;;;34.36;8.65;100856.66;5110663;28;20034;-69
2021/05/11 05:15:50;;;;;;;6.10;2.13;;;;;;;34.16;8.66;100901.69;5110723;28;20043;-70
2021/05/11 05:18:15;;;;;;;3.17;1.85;;;;;;;33.56;8.84;100906.84;5110789;28;20043;-67
2021/05/11 05:20:41;;;;;;;3.97;3.00;;;;;;;33.14;9.42;100894.16;5110716;28;20430;-70
2021/05/11 05:23:06;;;;;;;3.38;2.00;;;;;;;33.02;9.10;100860.94;5110458;28;20035;-68
2021/05/11 05:25:32;;;;;;;2.45;1.60;;;;;;;33.03;9.08;100899.50;5116753;28;20036;-68
2021/05/11 05:28:00;;;;;;;7.18;1.42;;;;;;;33.07;9.11;100900.72;5108892;28;20027;-67
2021/05/11 05:30:25;;;;;;;3.75;1.70;;;;;;;33.61;8.83;100887.50;5110716;28;20042;-75
2021/05/11 05:32:57;;;;;;;2.65;1.65;;;;;;;34.95;8.42;100893.22;5110114;28;20028;-72
2021/05/11 05:35:22;;;;;;;2.88;2.10;;;;;;;36.42;7.14;100892.19;5113566;28;20039;-73
2021/05/11 05:37:48;;;;;;;7.22;1.65;;;;;;;33.72;8.04;100894.06;5103542;28;20501;-73
2021/05/11 05:40:18;;;;;;;2.88;1.70;;;;;;;32.27;8.81;100894.00;5099478;28;20051;-68
2021/05/11 05:42:46;;;;;;;4.00;1.98;;;;;;;32.03;9.43;100866.34;5093658;28;20028;-72
2021/05/11 05:45:11;;;;;;;4.70;1.60;;;;;;;32.27;9.17;100882.94;5100179;28;20070;-72
2021/05/11 05:47:50;;;;;;;2.67;2.00;;;;;;;31.57;9.48;100866.91;5093473;28;20028;-73
2021/05/11 05:50:18;;;;;;;3.65;1.40;;;;;;;31.72;9.42;100888.63;5082764;28;20531;-73
2021/05/11 05:52:44;;;;;;;2.47;1.80;;;;;;;31.81;9.39;100868.91;5096997;28;20028;-71
2021/05/11 05:55:12;;;;;;;8.40;1.92;;;;;;;32.03;9.24;100869.13;5106191;28;20123;-73
2021/05/11 05:57:37;;;;;;;3.95;1.60;;;;;;;32.77;8.94;100851.84;5093830;28;20036;-75
2021/05/11 06:00:04;;;;;;;3.92;1.92;;;;;;;31.33;9.51;100822.59;5092452;28;20147;-71
2021/05/11 06:02:29;;;;;;;2.38;1.63;;;;;;;30.99;10.13;100822.28;5094175;28;20044;-74
2021/05/11 06:04:55;;;;;;;3.03;1.70;;;;;;;33.04;9.46;100865.16;5094259;28;20040;-70
2021/05/11 06:07:20;;;;;;;3.22;1.73;;;;;;;34.66;8.07;100855.38;5094495;28;20035;-74
2021/05/11 06:09:46;;;;;;;6.20;1.60;;;;;;;36.55;6.98;100829.50;5094425;28;20414;-73
2021/05/11 06:12:21;;;;;;;1.60;1.38;;;;;;;36.89;6.30;100884.81;5103641;28;20541;-73
2021/05/11 06:17:35;;;;;;;2.28;1.42;;;;;;;35.57;7.33;100877.13;5096773;28;20101;-72
2021/05/11 06:20:00;;;;;;;2.92;1.55;;;;;;;37.00;6.64;100874.50;5101235;28;20043;-73
2021/05/11 06:22:26;;;;;;;1.55;1.40;;;;;;;37.41;6.42;100876.53;5100713;28;20184;-73
2021/05/11 06:24:51;;;;;;;1.80;1.40;;;;;;;37.06;5.59;100829.63;5102584;28;20032;-69
2021/05/11 06:27:18;;;;;;;2.35;1.65;;;;;;;36.36;6.56;100860.63;5100888;28;20127;-69
2021/05/11 06:29:45;;;;;;;1.55;1.20;;;;;;;37.81;5.62;100860.84;5100795;28;20027;-70
2021/05/11 06:32:11;;;;;;;1.92;1.27;;;;;;;38.95;5.27;100870.78;5102721;28;20531;-68
2021/05/11 06:34:39;;;;;;;5.07;1.58;;;;;;;39.67;4.62;100836.59;5100485;28;20051;-68
2021/05/11 06:37:05;;;;;;;2.55;1.60;;;;;;;38.59;4.77;100863.44;5100292;28;20044;-69
2021/05/11 06:39:30;;;;;;;2.45;1.50;;;;;;;38.05;5.29;100865.84;5099440;28;20042;-68
2021/05/11 06:41:57;;;;;;;1.70;1.58;;;;;;;38.00;5.29;100872.31;5096655;28;20497;-66
2021/05/11 06:44:42;;;;;;;2.33;1.42;;;;;;;38.57;4.80;100872.13;5100940;28;20051;-67
2021/05/11 06:49:48;;;;;;;2.10;1.30;;;;;;;36.31;5.63;100846.69;5099757;28;20047;-70
2021/05/11 06:55:04;;;;;;;1.60;1.30;;;;;;;37.45;5.57;100855.31;5110331;28;20035;-68
2021/05/11 06:57:30;;;;;;;5.30;1.80;;;;;;;39.17;5.08;100845.97;5110190;28;20549;-67
2021/05/11 06:59:55;;;;;;;5.32;2.10;;;;;;;41.16;4.29;100846.19;5110186;28;20031;-63
2021/05/11 07:02:21;;;;;;;1.50;1.40;;;;;;;41.79;3.69;100869.25;5110189;28;20137;-68
2021/05/11 07:04:48;;;;;;;2.63;1.77;;;;;;;42.04;3.33;100870.75;5102421;28;20032;-69
2021/05/11 07:07:16;;;;;;;2.97;1.60;;;;;;;41.57;3.56;100799.66;5092950;28;20055;-66
2021/05/11 07:14:35;;;;;;;1.70;1.60;;;;;;;40.54;3.53;100835.88;5091277;28;20469;-72
2021/05/11 07:17:01;;;;;;;4.03;1.90;;;;;;;40.69;3.19;100827.22;5093388;28;20058;-73
2021/05/11 07:19:28;;;;;;;1.55;1.42;;;;;;;40.09;3.42;100852.97;5098226;28;20130;-69
2021/05/11 07:21:53;;;;;;;3.47;1.88;;;;;;;39.76;3.86;100833.97;5092023;28;20047;-69
2021/05/11 07:24:23;;;;;;;1.63;1.40;;;;;;;38.47;4.12;100847.81;5097766;28;20024;-69
2021/05/11 07:30:12;;;;;;;1.60;1.48;;;;;;;38.04;4.58;100847.41;5095164;28;20024;-68
2021/05/11 07:32:38;;;;;;;4.38;1.70;;;;;;;38.86;4.80;100845.38;5095860;28;20408;-70
2021/05/11 07:35:05;;;;;;;1.67;1.45;;;;;;;40.91;4.18;100842.63;5089062;28;20454;-71
2021/05/11 07:37:30;;;;;;;2.58;1.92;;;;;;;42.68;3.28;100832.50;5090736;28;20078;-69
2021/05/11 07:39:56;;;;;;;2.08;1.65;;;;;;;43.78;2.87;100780.72;5072539;28;20505;-68
2021/05/11 07:42:21;;;;;;;1.92;1.80;;;;;;;45.30;2.05;100810.34;5090998;28;20405;-71
2021/05/11 07:44:49;;;;;;;3.70;1.90;;;;;;;46.04;1.51;100829.19;5090235;28;20035;-68
2021/05/11 08:16:44;;;;;;;4.32;1.73;;;;;;;33.81;7.01;100803.69;5092976;28;20084;-70
2021/05/11 08:19:39;;;;;;;2.53;1.60;;;;;;;31.46;8.98;100801.34;5104052;28;20114;-69
2021/05/11 08:22:20;;;;;;;3.13;1.65;;;;;;;29.60;10.29;100803.31;5110138;28;20047;-67
2021/05/11 08:28:00;;;;;;;2.55;1.70;;;;;;;26.85;12.56;100785.81;5095361;28;20130;-69
2021/05/11 08:30:27;;;;;;;2.08;1.88;;;;;;;25.98;12.97;100813.72;5089726;28;20036;-66
2021/05/11 08:32:53;;;;;;;6.57;2.10;;;;;;;24.81;14.20;100749.13;5088454;28;20497;-69
2021/05/11 08:35:19;;;;;;;2.72;1.75;;;;;;;24.85;13.58;100782.44;5098489;28;20026;-68
2021/05/11 08:37:44;;;;;;;3.63;2.35;;;;;;;23.96;14.25;100735.03;5107067;28;20091;-67
2021/05/11 08:40:10;;;;;;;2.90;2.17;;;;;;;23.54;14.70;100803.81;5110260;28;20046;-70
2021/05/11 08:42:36;;;;;;;3.83;2.20;;;;;;;23.12;15.45;100799.72;5110290;28;20065;-69
2021/05/11 08:45:07;;;;;;;4.10;2.13;;;;;;;22.90;15.68;100792.22;5107321;28;20441;-68
2021/05/11 08:47:36;;;;;;;3.28;1.90;;;;;;;22.50;15.96;100778.66;5109914;28;20036;-68
2021/05/11 08:50:03;;;;;;;4.32;1.80;;;;;;;22.49;16.31;100778.81;5099939;28;20094;-68
2021/05/11 09:08:57;;;;;;;2.63;1.63;;;;;;;21.90;16.66;100766.44;5110557;28;20043;-69
2021/05/11 09:25:14;;;;;;;3.58;1.70;;;;;;;22.75;16.55;100753.94;5114486;28;20034;-67
2021/05/11 09:27:50;;;;;;;3.17;2.05;;;;;;;22.68;16.03;100755.69;5116772;28;20039;-68
2021/05/11 09:33:07;;;;;;;5.25;1.70;;;;;;;22.85;16.18;100744.63;5113233;28;20488;-68
2021/05/11 10:49:39;;;;;;;2.08;1.67;;;;;;;23.80;16.53;100702.22;5089515;28;20036;-70
2021/05/11 10:52:29;;;;;;;3.03;1.60;;;;;;;23.84;16.11;100685.44;5091360;28;20035;-70
2021/05/11 10:55:20;;;;;;;1.63;1.30;;;;;;;23.91;16.09;100686.38;5091573;28;20424;-70
2021/05/11 11:00:22;;;;;;;3.78;1.55;;;;;;;24.26;15.43;100686.63;5091312;28;20501;-70
2021/05/11 11:03:22;;;;;;;1.83;1.73;;;;;;;23.97;15.94;100692.97;5091995;28;20043;-68
2021/05/11 11:05:57;;;;;;;5.30;2.10;;;;;;;23.66;16.18;100681.22;5091075;28;20501;-70
2021/05/11 11:08:39;;;;;;;3.20;1.70;;;;;;;23.68;16.14;100684.59;5091038;28;20584;-68
2021/05/11 11:11:17;;;;;;;4.45;1.73;;;;;;;23.39;15.85;100630.78;5091382;28;20042;-70
2021/05/11 11:13:45;;;;;;;4.13;1.40;;;;;;;23.72;16.25;100679.59;5091075;28;20024;-69
2021/05/11 11:16:11;;;;;;;3.05;1.38;;;;;;;23.70;16.44;100676.22;5090664;28;20493;-71
2021/05/11 11:18:37;;;;;;;2.45;1.67;;;;;;;23.59;16.24;100656.50;5091131;28;20386;-69
2021/05/11 11:23:57;;;;;;;5.13;1.77;;;;;;;23.69;16.53;100660.84;5091398;28;20087;-72
2021/05/11 11:26:29;;;;;;;3.28;1.20;;;;;;;23.66;16.45;100683.94;5090728;28;20158;-68
2021/05/11 11:29:06;;;;;;;8.32;1.80;;;;;;;23.75;16.40;100669.16;5091166;28;20501;-70
2021/05/11 11:31:39;;;;;;;3.97;1.60;;;;;;;23.75;16.45;100685.56;5090703;28;20039;-70
2021/05/11 11:34:14;;;;;;;3.67;1.85;;;;;;;23.55;16.73;100660.66;5090795;28;20028;-69
2021/05/11 11:36:40;;;;;;;2.42;1.50;;;;;;;23.77;16.33;100679.88;5092046;28;20105;-71
2021/05/11 11:39:19;;;;;;;2.78;1.50;;;;;;;23.79;16.19;100669.59;5091435;28;20124;-69
2021/05/11 11:41:46;;;;;;;2.45;1.60;;;;;;;23.34;16.85;100675.09;5090899;28;20409;-70
2021/05/11 11:44:16;;;;;;;2.90;1.50;;;;;;;23.21;17.00;100651.97;5093404;28;20059;-70
2021/05/11 11:46:42;;;;;;;2.35;1.40;;;;;;;23.19;17.73;100664.13;5089943;28;20043;-70
2021/05/11 11:49:17;;;;;;;4.10;1.67;;;;;;;23.13;17.85;100632.06;5090700;28;20036;-71
2021/05/11 11:51:43;;;;;;;2.88;1.83;;;;;;;23.28;17.43;100626.69;5090762;28;20043;-70
2021/05/11 11:59:53;;;;;;;3.00;1.60;;;;;;;23.46;17.99;100675.47;5090502;28;20032;-62
2021/05/11 12:02:18;;;;;;;5.55;1.65;;;;;;;23.14;17.72;100590.94;5090603;28;20071;-63
2021/05/11 12:04:46;;;;;;;7.60;1.80;;;;;;;23.66;17.88;100659.34;5089632;28;20082;-59
2021/05/11 12:07:15;;;;;;;2.88;1.50;;;;;;;23.44;17.91;100640.13;5089529;28;20061;-59
2021/05/11 12:09:41;;;;;;;3.80;1.50;;;;;;;23.36;18.16;100635.59;5090377;28;20032;-57
2021/05/11 12:12:10;;;;;;;5.90;1.70;;;;;;;23.59;17.69;100645.56;5089777;28;20128;-58
2021/05/11 12:14:37;;;;;;;5.57;1.98;;;;;;;23.37;18.13;100640.03;5089864;28;20074;-55
2021/05/11 12:17:03;;;;;;;2.10;1.77;;;;;;;23.29;18.23;100622.91;5089790;28;20036;-53
2021/05/11 12:19:30;;;;;;;4.40;1.60;;;;;;;23.36;18.49;100632.88;5089429;28;20028;-56
2021/05/11 12:22:05;;;;;;;3.33;1.73;;;;;;;23.47;18.60;100612.41;5089745;28;20360;-55
2021/05/11 12:24:37;;;;;;;6.55;1.73;;;;;;;23.70;18.06;100630.56;5089938;28;20182;-53
2021/05/11 12:27:21;;;;;;;2.92;1.48;;;;;;;23.74;18.25;100640.09;5089567;28;20039;-59
2021/05/11 12:30:09;;;;;;;6.00;1.88;;;;;;;23.73;18.15;100627.47;5089868;28;20043;-53
2021/05/11 12:32:36;;;;;;;2.50;1.77;;;;;;;23.36;17.97;100555.53;5089570;28;20027;-59
2021/05/11 12:35:28;;;;;;;3.35;1.75;;;;;;;23.85;17.97;100619.59;5089973;28;20401;-57
2021/05/11 12:37:59;;;;;;;3.58;1.67;;;;;;;23.73;18.57;100626.63;5088657;28;20055;-56
2021/05/11 12:40:40;;;;;;;4.68;1.65;;;;;;;23.70;18.19;100630.56;5090108;28;20039;-53
2021/05/11 12:43:05;;;;;;;1.70;1.48;;;;;;;23.70;18.34;100616.06;5090632;28;20047;-58
2021/05/11 12:45:35;;;;;;;3.80;1.52;;;;;;;23.51;18.49;100585.56;5093964;28;20036;-54
2021/05/11 12:48:04;;;;;;;5.35;2.47;;;;;;;23.76;18.45;100620.78;5093746;28;20426;-52
2021/05/11 12:50:33;;;;;;;6.85;2.35;;;;;;;23.74;18.41;100617.38;5094184;28;20040;-57
2021/05/11 12:53:42;;;;;;;6.35;2.00;;;;;;;23.71;18.43;100595.91;5093714;28;20032;-56
2021/05/11 12:56:53;;;;;;;3.85;1.73;;;;;;;23.91;18.88;100599.72;5093928;28;20046;-55
2021/05/11 12:59:27;;;;;;;4.63;1.80;;;;;;;23.98;18.28;100607.97;5093885;28;20456;-57
2021/05/11 13:02:02;;;;;;;3.30;1.92;;;;;;;23.97;18.21;100606.28;5093850;28;20036;-54
2021/05/11 13:25:57;;;;;;;5.47;2.03;;;;;;;23.82;18.82;100597.28;5093620;28;20065;-59
2021/05/11 13:35:39;;;;;;;2.65;1.70;;;;;;;23.74;19.06;100576.38;5093285;28;20032;-57
2021/05/11 13:38:05;;;;;;;5.50;2.17;;;;;;;24.02;18.75;100597.53;5091549;28;20104;-53
2021/05/11 13:40:32;;;;;;;4.15;1.80;;;;;;;23.89;19.09;100603.69;5092897;28;20047;-56
2021/05/11 13:42:58;;;;;;;5.60;2.20;;;;;;;23.90;18.69;100576.16;5093130;28;20086;-54
2021/05/11 13:45:24;;;;;;;4.30;2.08;;;;;;;24.05;18.56;100594.41;5092913;28;20476;-53
2021/05/11 13:50:39;;;;;;;3.77;2.03;;;;;;;23.97;18.77;100606.28;5092701;28;20093;-53
2021/05/11 13:53:05;;;;;;;5.40;1.80;;;;;;;23.96;18.99;100581.88;5093035;28;20032;-52
2021/05/11 13:55:47;;;;;;;5.93;2.13;;;;;;;24.01;18.74;100599.44;5091933;28;20032;-52
2021/05/11 14:03:41;;;;;;;7.63;2.20;;;;;;;23.85;19.12;100607.84;5090768;28;20038;-57
2021/05/11 14:06:06;;;;;;;4.55;2.20;;;;;;;23.93;19.04;100586.69;5090702;28;20405;-57
2021/05/11 14:08:32;;;;;;;6.40;1.92;;;;;;;23.94;19.41;100580.19;5090072;28;20375;-52
2021/05/11 14:10:57;;;;;;;5.60;1.65;;;;;;;23.80;19.52;100575.59;5091018;28;20074;-52
2021/05/11 14:13:23;;;;;;;4.18;2.13;;;;;;;23.43;19.68;100518.19;5092186;28;20401;-55
2021/05/11 14:15:48;;;;;;;4.30;2.22;;;;;;;23.91;19.68;100598.84;5091916;28;20526;-51
2021/05/11 14:18:14;;;;;;;3.40;2.13;;;;;;;23.87;19.55;100583.88;5092622;28;20035;-54
2021/05/11 14:20:39;;;;;;;8.70;2.13;;;;;;;23.65;19.87;100548.31;5092159;28;20032;-52
2021/05/11 14:23:05;;;;;;;7.10;1.85;;;;;;;23.91;19.62;100591.50;5092153;28;20386;-57
2021/05/11 14:25:30;;;;;;;3.58;1.70;;;;;;;23.78;19.98;100583.16;5101703;28;20031;-57
2021/05/11 14:27:56;;;;;;;6.65;2.00;;;;;;;23.85;20.05;100597.72;5112047;28;20035;-55
2021/05/11 14:30:22;;;;;;;5.38;1.85;;;;;;;23.79;20.10;100576.63;5112761;28;20148;-55
2021/05/11 14:32:47;;;;;;;5.72;1.90;;;;;;;23.77;20.43;100593.25;5111802;28;20046;-57
2021/05/11 14:35:13;;;;;;;7.32;2.50;;;;;;;23.92;20.24;100595.06;5112197;28;20027;-55
2021/05/11 14:37:39;;;;;;;4.30;1.90;;;;;;;23.91;20.45;100596.97;5112367;28;20484;-55
2021/05/11 14:40:05;;;;;;;3.08;2.00;;;;;;;23.74;20.73;100604.53;5111989;28;20043;-53
2021/05/11 14:42:30;;;;;;;4.20;1.90;;;;;;;23.31;21.03;100539.69;5112398;28;20055;-54
2021/05/11 14:44:56;;;;;;;4.90;1.85;;;;;;;23.52;21.05;100587.25;5113067;28;20032;-53
2021/05/11 14:47:21;;;;;;;4.32;2.00;;;;;;;23.75;20.55;100599.94;5111922;28;20115;-55
2021/05/11 14:49:47;;;;;;;4.72;2.13;;;;;;;23.80;20.75;100619.34;5111626;28;20115;-56
2021/05/11 14:52:13;;;;;;;7.45;2.15;;;;;;;23.76;20.51;100590.69;5112266;28;20057;-52
2021/05/11 14:54:40;;;;;;;8.02;2.33;;;;;;;23.75;20.73;100599.94;5112564;28;20039;-57
2021/05/11 14:57:14;;;;;;;3.97;2.13;;;;;;;23.34;20.73;100530.28;5111713;28;20034;-59
2021/05/11 14:59:39;;;;;;;3.72;2.22;;;;;;;23.70;20.79;100577.81;5111831;28;20040;-58
2021/05/11 15:02:06;;;;;;;3.13;2.30;;;;;;;23.61;20.73;100588.84;5112042;28;20058;-59
2021/05/11 15:04:31;;;;;;;6.60;2.28;;;;;;;23.53;20.84;100577.19;5111745;28;20039;-57
2021/05/11 15:06:59;;;;;;;7.03;2.13;;;;;;;23.43;20.83;100561.09;5110600;28;20046;-57
2021/05/11 15:09:24;;;;;;;3.90;2.03;;;;;;;23.53;21.03;100586.22;5112320;28;20035;-55
2021/05/11 15:11:50;;;;;;;3.78;2.10;;;;;;;23.49;20.91;100583.00;5112066;28;20031;-56
2021/05/11 15:14:15;;;;;;;3.80;2.40;;;;;;;23.49;20.92;100582.19;5111528;28;20477;-57
2021/05/11 15:16:41;;;;;;;6.57;2.33;;;;;;;23.47;20.89;100562.38;5111361;28;20032;-60
2021/05/11 15:19:07;;;;;;;3.17;1.88;;;;;;;23.45;21.33;100583.59;5111792;28;20035;-55
2021/05/11 15:21:36;;;;;;;5.95;2.65;;;;;;;23.53;21.34;100583.47;5110512;28;20031;-56
2021/05/11 15:24:02;;;;;;;4.43;2.83;;;;;;;23.31;21.32;100560.72;5109547;28;20400;-61
2021/05/11 15:26:31;;;;;;;8.07;2.75;;;;;;;23.31;21.42;100569.75;5109902;28;20024;-55
2021/05/11 15:28:57;;;;;;;6.35;3.08;;;;;;;23.42;21.67;100582.09;5112129;28;20054;-56
2021/05/11 15:31:23;;;;;;;7.22;2.80;;;;;;;23.45;21.43;100587.16;5111958;28;20484;-56
2021/05/11 15:33:49;;;;;;;4.65;2.58;;;;;;;23.25;21.54;100564.16;5111864;28;20031;-55
2021/05/11 15:36:14;;;;;;;7.22;2.92;;;;;;;23.31;21.66;100574.38;5111632;28;20039;-54
2021/05/11 15:38:40;;;;;;;8.73;3.47;;;;;;;23.32;21.89;100573.34;5111367;28;20095;-54
2021/05/11 15:41:06;;;;;;;8.52;3.22;;;;;;;23.29;21.55;100566.38;5111609;28;20053;-55
2021/05/11 15:43:31;;;;;;;4.78;2.97;;;;;;;23.28;21.67;100581.06;5111702;28;20039;-58
2021/05/11 15:45:57;;;;;;;3.85;3.30;;;;;;;23.22;21.80;100576.34;5111167;28;20119;-55
2021/05/11 15:48:24;;;;;;;4.10;2.90;;;;;;;23.16;21.91;100577.94;5111206;28;20032;-61
2021/05/11 15:50:51;;;;;;;4.80;3.03;;;;;;;23.13;22.21;100580.19;5111491;28;20036;-56
2021/05/11 15:53:19;;;;;;;5.13;3.00;;;;;;;23.05;22.33;100579.25;5111540;28;20198;-59
2021/05/11 15:55:47;;;;;;;4.28;2.80;;;;;;;23.07;21.99;100571.69;5110835;28;20046;-54
2021/05/11 15:58:13;;;;;;;6.15;3.28;;;;;;;23.18;22.24;100575.03;5110756;28;20073;-54